sensor_id;sensor_type;location;lat;lon;timestamp;pressure;altitude;pressure_sealevel;temperature;humidity
46199;BME280;31928;52.104;10.030;2023-07-20T09:53:24;100371.75;;;25.67;39.71
46199;BME280;31928;52.104;10.030;2023-07-20T09:55:52;100362.53;;;25.85;39.00
46199;BME280;31928;52.104;10.030;2023-07-20T09:58:19;100357.09;;;25.94;37.12
46199;BME280;31928;52.104;10.030;2023-07-20T10:00:48;100370.41;;;26.00;37.52
46199;BME280;31928;52.104;10.030;2023-07-20T10:03:21;100364.25;;;26.03;38.29
46199;BME280;31928;52.104;10.030;2023-07-20T10:05:53;100359.94;;;26.10;38.70
46199;BME280;31928;52.104;10.030;2023-07-20T10:08:24;100364.00;;;26.13;37.43
46199;BME280;31928;52.104;10.030;2023-07-20T10:10:54;100359.81;;;26.15;36.93
46199;BME280;31928;52.104;10.030;2023-07-20T10:13:25;100360.69;;;26.24;36.60
46199;BME280;31928;52.104;10.030;2023-07-20T10:15:54;100369.59;;;26.30;37.07
46199;BME280;31928;52.104;10.030;2023-07-20T10:18:29;100364.66;;;26.40;36.00
46199;BME280;31928;52.104;10.030;2023-07-20T10:20:59;100360.97;;;26.45;36.50
46199;BME280;31928;52.104;10.030;2023-07-20T10:23:30;100360.16;;;26.44;33.95
46199;BME280;31928;52.104;10.030;2023-07-20T10:25:57;100354.81;;;26.39;34.11
46199;BME280;31928;52.104;10.030;2023-07-20T10:28:26;100359.00;;;26.37;36.18
46199;BME280;31928;52.104;10.030;2023-07-20T10:30:54;100352.88;;;26.40;35.87
46199;BME280;31928;52.104;10.030;2023-07-20T10:33:21;100358.72;;;26.47;34.85
46199;BME280;31928;52.104;10.030;2023-07-20T10:36:02;100347.28;;;26.62;34.40
46199;BME280;31928;52.104;10.030;2023-07-20T10:41:34;100348.69;;;26.89;37.05
46199;BME280;31928;52.104;10.030;2023-07-20T10:44:03;100342.03;;;26.90;34.29
46199;BME280;31928;52.104;10.030;2023-07-20T10:46:44;100342.75;;;27.04;35.30
46199;BME280;31928;52.104;10.030;2023-07-20T10:49:13;100353.59;;;27.01;34.34
46199;BME280;31928;52.104;10.030;2023-07-20T10:51:43;100348.75;;;27.06;34.96
46199;BME280;31928;52.104;10.030;2023-07-20T10:56:47;100343.91;;;27.28;33.45
46199;BME280;31928;52.104;10.030;2023-07-20T11:01:47;100350.09;;;27.42;32.65
46199;BME280;31928;52.104;10.030;2023-07-20T11:04:16;100343.44;;;27.52;31.64
46199;BME280;31928;52.104;10.030;2023-07-20T11:06:46;100343.97;;;27.62;31.20
46199;BME280;31928;52.104;10.030;2023-07-20T11:09:22;100345.06;;;27.70;31.03
46199;BME280;31928;52.104;10.030;2023-07-20T11:12:09;100348.13;;;27.85;33.75
46199;BME280;31928;52.104;10.030;2023-07-20T11:17:15;100334.69;;;27.84;32.46
46199;BME280;31928;52.104;10.030;2023-07-20T11:19:48;100334.84;;;27.87;32.11
46199;BME280;31928;52.104;10.030;2023-07-20T11:22:18;100341.66;;;27.90;31.04
46199;BME280;31928;52.104;10.030;2023-07-20T11:24:45;100335.97;;;27.94;29.82
46199;BME280;31928;52.104;10.030;2023-07-20T11:27:12;100332.41;;;28.02;30.54
46199;BME280;31928;52.104;10.030;2023-07-20T11:29:39;100335.13;;;28.11;30.84
46199;BME280;31928;52.104;10.030;2023-07-20T11:32:06;100342.59;;;28.19;29.41
46199;BME280;31928;52.104;10.030;2023-07-20T11:34:34;100342.09;;;28.25;29.66
46199;BME280;31928;52.104;10.030;2023-07-20T11:37:01;100338.19;;;28.26;29.98
46199;BME280;31928;52.104;10.030;2023-07-20T11:39:32;100336.72;;;28.29;28.77
46199;BME280;31928;52.104;10.030;2023-07-20T11:41:59;100328.31;;;28.25;29.54
46199;BME280;31928;52.104;10.030;2023-07-20T11:44:28;100329.44;;;28.24;30.66
46199;BME280;31928;52.104;10.030;2023-07-20T11:49:27;100340.78;;;28.14;28.69
46199;BME280;31928;52.104;10.030;2023-07-20T11:51:55;100322.16;;;28.03;29.25
46199;BME280;31928;52.104;10.030;2023-07-20T11:54:23;100329.63;;;27.94;28.75
46199;BME280;31928;52.104;10.030;2023-07-20T11:56:54;100331.78;;;27.89;31.08
46199;BME280;31928;52.104;10.030;2023-07-20T11:59:24;100323.03;;;27.70;29.60
46199;BME280;31928;52.104;10.030;2023-07-20T12:01:52;100328.91;;;27.60;30.02
46199;BME280;31928;52.104;10.030;2023-07-20T12:04:19;100330.81;;;27.51;29.57
46199;BME280;31928;52.104;10.030;2023-07-20T12:06:46;100335.66;;;27.37;30.38
46199;BME280;31928;52.104;10.030;2023-07-20T12:09:14;100334.69;;;27.25;30.53
46199;BME280;31928;52.104;10.030;2023-07-20T12:11:44;100333.69;;;27.12;30.17
46199;BME280;31928;52.104;10.030;2023-07-20T12:14:14;100323.81;;;27.03;29.98
46199;BME280;31928;52.104;10.030;2023-07-20T12:16:43;100330.41;;;26.93;31.48
46199;BME280;31928;52.104;10.030;2023-07-20T12:19:12;100323.22;;;26.84;31.37
46199;BME280;31928;52.104;10.030;2023-07-20T12:21:41;100327.44;;;26.81;32.41
46199;BME280;31928;52.104;10.030;2023-07-20T12:24:10;100318.72;;;26.79;32.68
46199;BME280;31928;52.104;10.030;2023-07-20T12:26:37;100321.47;;;26.79;32.45
46199;BME280;31928;52.104;10.030;2023-07-20T12:29:04;100319.50;;;26.80;32.22
46199;BME280;31928;52.104;10.030;2023-07-20T12:31:36;100313.84;;;26.85;32.95
46199;BME280;31928;52.104;10.030;2023-07-20T12:34:03;100318.72;;;26.79;32.49
46199;BME280;31928;52.104;10.030;2023-07-20T12:36:30;100328.72;;;26.75;32.84
46199;BME280;31928;52.104;10.030;2023-07-20T12:38:58;100325.47;;;26.73;32.42
46199;BME280;31928;52.104;10.030;2023-07-20T12:41:25;100330.97;;;26.73;33.48
46199;BME280;31928;52.104;10.030;2023-07-20T12:43:51;100321.78;;;26.78;32.98
46199;BME280;31928;52.104;10.030;2023-07-20T12:46:20;100324.72;;;26.90;33.26
46199;BME280;31928;52.104;10.030;2023-07-20T12:48:47;100330.94;;;27.04;31.19
46199;BME280;31928;52.104;10.030;2023-07-20T12:51:15;100324.31;;;27.13;31.21
46199;BME280;31928;52.104;10.030;2023-07-20T12:53:42;100319.47;;;27.27;31.13
46199;BME280;31928;52.104;10.030;2023-07-20T12:56:09;100312.19;;;27.39;30.58
46199;BME280;31928;52.104;10.030;2023-07-20T12:58:38;100307.63;;;27.52;30.14
46199;BME280;31928;52.104;10.030;2023-07-20T13:01:05;100307.81;;;27.64;30.88
46199;BME280;31928;52.104;10.030;2023-07-20T13:03:32;100310.72;;;27.76;31.29
46199;BME280;31928;52.104;10.030;2023-07-20T13:06:00;100312.13;;;27.90;30.50
46199;BME280;31928;52.104;10.030;2023-07-20T13:08:30;100315.03;;;28.02;29.58
46199;BME280;31928;52.104;10.030;2023-07-20T13:10:56;100308.38;;;28.11;29.67
46199;BME280;31928;52.104;10.030;2023-07-20T13:13:23;100313.06;;;28.19;30.49
46199;BME280;31928;52.104;10.030;2023-07-20T13:15:50;100308.50;;;28.23;30.54
46199;BME280;31928;52.104;10.030;2023-07-20T13:18:16;100304.13;;;28.22;31.07
46199;BME280;31928;52.104;10.030;2023-07-20T13:20:45;100303.66;;;28.20;31.39
46199;BME280;31928;52.104;10.030;2023-07-20T13:23:12;100302.38;;;28.18;31.42
46199;BME280;31928;52.104;10.030;2023-07-20T13:25:38;100294.25;;;28.13;30.62
46199;BME280;31928;52.104;10.030;2023-07-20T13:28:05;100302.34;;;28.09;30.32
46199;BME280;31928;52.104;10.030;2023-07-20T13:30:32;100300.09;;;28.03;30.31
46199;BME280;31928;52.104;10.030;2023-07-20T13:32:59;100308.41;;;27.94;30.27
46199;BME280;31928;52.104;10.030;2023-07-20T13:35:31;100316.34;;;27.88;30.52
46199;BME280;31928;52.104;10.030;2023-07-20T13:38:01;100309.59;;;27.77;29.80
46199;BME280;31928;52.104;10.030;2023-07-20T13:40:28;100314.94;;;27.65;29.30
46199;BME280;31928;52.104;10.030;2023-07-20T13:42:55;100320.25;;;27.53;29.89
46199;BME280;31928;52.104;10.030;2023-07-20T13:45:21;100319.47;;;27.44;31.27
46199;BME280;31928;52.104;10.030;2023-07-20T13:47:49;100321.41;;;27.35;30.97
46199;BME280;31928;52.104;10.030;2023-07-20T13:50:16;100318.66;;;27.27;30.38
46199;BME280;31928;52.104;10.030;2023-07-20T13:52:46;100320.28;;;27.19;30.63
46199;BME280;31928;52.104;10.030;2023-07-20T13:55:13;100318.78;;;27.13;30.85
46199;BME280;31928;52.104;10.030;2023-07-20T13:57:41;100315.41;;;27.08;30.95
46199;BME280;31928;52.104;10.030;2023-07-20T14:00:09;100316.84;;;27.05;31.20
46199;BME280;31928;52.104;10.030;2023-07-20T14:02:37;100312.00;;;27.02;31.48
46199;BME280;31928;52.104;10.030;2023-07-20T14:05:07;100323.63;;;26.99;31.11
46199;BME280;31928;52.104;10.030;2023-07-20T14:07:39;100320.41;;;26.97;31.08
46199;BME280;31928;52.104;10.030;2023-07-20T14:10:06;100321.03;;;26.94;31.31
46199;BME280;31928;52.104;10.030;2023-07-20T14:12:36;100311.47;;;26.92;31.28
46199;BME280;31928;52.104;10.030;2023-07-20T14:15:03;100309.66;;;26.87;30.98
46199;BME280;31928;52.104;10.030;2023-07-20T14:17:31;100314.19;;;26.83;30.97
46199;BME280;31928;52.104;10.030;2023-07-20T14:19:58;100320.66;;;26.79;31.27
46199;BME280;31928;52.104;10.030;2023-07-20T14:22:25;100316.91;;;26.75;31.38
46199;BME280;31928;52.104;10.030;2023-07-20T14:24:52;100324.50;;;26.69;32.14
46199;BME280;31928;52.104;10.030;2023-07-20T14:27:20;100324.16;;;26.63;31.62
46199;BME280;31928;52.104;10.030;2023-07-20T14:29:46;100318.81;;;26.58;32.19
46199;BME280;31928;52.104;10.030;2023-07-20T14:32:13;100314.56;;;26.52;32.30
46199;BME280;31928;52.104;10.030;2023-07-20T14:34:40;100325.72;;;26.47;32.59
46199;BME280;31928;52.104;10.030;2023-07-20T14:37:07;100322.28;;;26.41;32.77
46199;BME280;31928;52.104;10.030;2023-07-20T14:39:34;100313.38;;;26.36;32.90
46199;BME280;31928;52.104;10.030;2023-07-20T14:42:01;100314.59;;;26.30;32.95
46199;BME280;31928;52.104;10.030;2023-07-20T14:44:28;100318.66;;;26.24;32.69
46199;BME280;31928;52.104;10.030;2023-07-20T14:46:55;100322.66;;;26.18;32.97
46199;BME280;31928;52.104;10.030;2023-07-20T14:49:39;100306.78;;;26.15;33.79
46199;BME280;31928;52.104;10.030;2023-07-20T14:52:06;100312.91;;;26.12;33.48
46199;BME280;31928;52.104;10.030;2023-07-20T14:54:41;100309.03;;;26.13;33.59
46199;BME280;31928;52.104;10.030;2023-07-20T14:57:08;100299.66;;;26.14;33.03
46199;BME280;31928;52.104;10.030;2023-07-20T14:59:41;100302.28;;;26.19;32.90
46199;BME280;31928;52.104;10.030;2023-07-20T15:02:08;100308.78;;;26.23;32.41
46199;BME280;31928;52.104;10.030;2023-07-20T15:04:35;100304.25;;;26.27;32.64
46199;BME280;31928;52.104;10.030;2023-07-20T15:07:02;100298.09;;;26.30;32.26
46199;BME280;31928;52.104;10.030;2023-07-20T15:09:29;100299.13;;;26.34;32.22
46199;BME280;31928;52.104;10.030;2023-07-20T15:11:56;100295.25;;;26.35;32.26
46199;BME280;31928;52.104;10.030;2023-07-20T15:14:22;100295.75;;;26.37;32.36
46199;BME280;31928;52.104;10.030;2023-07-20T15:16:49;100290.13;;;26.42;32.83
46199;BME280;31928;52.104;10.030;2023-07-20T15:19:16;100282.22;;;26.49;33.07
46199;BME280;31928;52.104;10.030;2023-07-20T15:21:43;100288.53;;;26.58;31.57
46199;BME280;31928;52.104;10.030;2023-07-20T15:24:10;100286.63;;;26.67;32.26
46199;BME280;31928;52.104;10.030;2023-07-20T15:26:37;100280.84;;;26.76;32.57
46199;BME280;31928;52.104;10.030;2023-07-20T15:29:03;100283.25;;;26.86;30.72
46199;BME280;31928;52.104;10.030;2023-07-20T15:31:30;100283.78;;;26.97;31.40
46199;BME280;31928;52.104;10.030;2023-07-20T15:34:00;100275.56;;;27.05;32.20
46199;BME280;31928;52.104;10.030;2023-07-20T15:36:26;100276.38;;;27.14;31.77
46199;BME280;31928;52.104;10.030;2023-07-20T15:38:53;100287.06;;;27.24;31.72
46199;BME280;31928;52.104;10.030;2023-07-20T15:41:20;100282.03;;;27.34;31.17
46199;BME280;31928;52.104;10.030;2023-07-20T15:43:48;100276.22;;;27.44;31.22
46199;BME280;31928;52.104;10.030;2023-07-20T15:48:47;100272.63;;;27.61;31.36
46199;BME280;31928;52.104;10.030;2023-07-20T15:51:14;100274.75;;;27.64;31.45
46199;BME280;31928;52.104;10.030;2023-07-20T15:53:40;100270.22;;;27.68;30.43
46199;BME280;31928;52.104;10.030;2023-07-20T15:56:07;100270.03;;;27.73;30.09
46199;BME280;31928;52.104;10.030;2023-07-20T15:58:34;100266.63;;;27.76;29.98
46199;BME280;31928;52.104;10.030;2023-07-20T16:01:01;100259.47;;;27.75;29.68
46199;BME280;31928;52.104;10.030;2023-07-20T16:03:28;100260.16;;;27.72;30.09
46199;BME280;31928;52.104;10.030;2023-07-20T16:05:58;100255.94;;;27.66;29.39
46199;BME280;31928;52.104;10.030;2023-07-20T16:08:25;100256.44;;;27.59;29.59
46199;BME280;31928;52.104;10.030;2023-07-20T16:10:53;100257.06;;;27.48;29.29
46199;BME280;31928;52.104;10.030;2023-07-20T16:13:20;100250.75;;;27.39;29.45
46199;BME280;31928;52.104;10.030;2023-07-20T16:15:49;100251.25;;;27.32;30.97
46199;BME280;31928;52.104;10.030;2023-07-20T16:18:19;100256.28;;;27.22;30.66
46199;BME280;31928;52.104;10.030;2023-07-20T16:20:46;100256.78;;;27.16;29.88
46199;BME280;31928;52.104;10.030;2023-07-20T16:23:13;100256.13;;;27.10;29.97
46199;BME280;31928;52.104;10.030;2023-07-20T16:25:39;100251.59;;;27.06;30.63
46199;BME280;31928;52.104;10.030;2023-07-20T16:28:06;100249.16;;;27.04;30.02
46199;BME280;31928;52.104;10.030;2023-07-20T16:30:33;100248.03;;;27.05;30.27
46199;BME280;31928;52.104;10.030;2023-07-20T16:32:59;100241.88;;;27.08;29.55
46199;BME280;31928;52.104;10.030;2023-07-20T16:35:28;100250.94;;;27.09;30.34
46199;BME280;31928;52.104;10.030;2023-07-20T16:38:14;100244.63;;;27.08;30.19
46199;BME280;31928;52.104;10.030;2023-07-20T16:40:40;100240.28;;;27.07;29.99
46199;BME280;31928;52.104;10.030;2023-07-20T16:43:10;100245.78;;;27.07;29.82
46199;BME280;31928;52.104;10.030;2023-07-20T16:45:37;100245.28;;;27.05;29.68
46199;BME280;31928;52.104;10.030;2023-07-20T16:48:04;100247.56;;;27.03;30.02
46199;BME280;31928;52.104;10.030;2023-07-20T16:50:31;100246.56;;;26.99;29.51
46199;BME280;31928;52.104;10.030;2023-07-20T16:52:58;100243.97;;;26.94;29.22
46199;BME280;31928;52.104;10.030;2023-07-20T16:55:24;100247.66;;;26.90;31.25
46199;BME280;31928;52.104;10.030;2023-07-20T16:57:51;100256.41;;;26.83;31.86
46199;BME280;31928;52.104;10.030;2023-07-20T17:00:18;100250.56;;;26.76;31.41
46199;BME280;31928;52.104;10.030;2023-07-20T17:02:45;100250.22;;;26.69;31.89
46199;BME280;31928;52.104;10.030;2023-07-20T17:05:11;100256.53;;;26.62;31.74
46199;BME280;31928;52.104;10.030;2023-07-20T17:07:39;100256.19;;;26.55;32.19
46199;BME280;31928;52.104;10.030;2023-07-20T17:10:06;100253.09;;;26.48;32.11
46199;BME280;31928;52.104;10.030;2023-07-20T17:12:34;100245.47;;;26.45;32.38
46199;BME280;31928;52.104;10.030;2023-07-20T17:15:01;100247.72;;;26.43;32.94
46199;BME280;31928;52.104;10.030;2023-07-20T17:17:28;100241.75;;;26.41;32.27
46199;BME280;31928;52.104;10.030;2023-07-20T17:19:54;100244.50;;;26.41;32.56
46199;BME280;31928;52.104;10.030;2023-07-20T17:22:24;100242.06;;;26.39;32.49
46199;BME280;31928;52.104;10.030;2023-07-20T17:24:51;100247.41;;;26.36;32.92
46199;BME280;31928;52.104;10.030;2023-07-20T17:27:20;100241.91;;;26.36;32.70
46199;BME280;31928;52.104;10.030;2023-07-20T17:29:47;100233.97;;;26.34;32.95
46199;BME280;31928;52.104;10.030;2023-07-20T17:32:14;100245.75;;;26.35;33.71
46199;BME280;31928;52.104;10.030;2023-07-20T17:34:40;100232.63;;;26.32;33.20
46199;BME280;31928;52.104;10.030;2023-07-20T17:37:07;100236.81;;;26.29;32.99
46199;BME280;31928;52.104;10.030;2023-07-20T17:39:36;100235.53;;;26.27;33.02
46199;BME280;31928;52.104;10.030;2023-07-20T17:42:06;100238.91;;;26.24;32.75
46199;BME280;31928;52.104;10.030;2023-07-20T17:44:36;100235.66;;;26.22;32.93
46199;BME280;31928;52.104;10.030;2023-07-20T17:47:02;100235.47;;;26.18;32.61
46199;BME280;31928;52.104;10.030;2023-07-20T17:49:32;100239.69;;;26.16;32.97
46199;BME280;31928;52.104;10.030;2023-07-20T17:51:59;100235.94;;;26.12;32.85
46199;BME280;31928;52.104;10.030;2023-07-20T17:54:26;100238.22;;;26.10;32.97
46199;BME280;31928;52.104;10.030;2023-07-20T17:56:53;100242.72;;;26.06;33.32
46199;BME280;31928;52.104;10.030;2023-07-20T17:59:20;100231.88;;;26.01;32.94
46199;BME280;31928;52.104;10.030;2023-07-20T18:01:47;100226.19;;;25.98;33.15
46199;BME280;31928;52.104;10.030;2023-07-20T18:04:15;100228.75;;;25.94;33.25
46199;BME280;31928;52.104;10.030;2023-07-20T18:06:42;100230.03;;;25.88;33.13
46199;BME280;31928;52.104;10.030;2023-07-20T18:09:09;100225.16;;;25.85;33.33
46199;BME280;31928;52.104;10.030;2023-07-20T18:11:35;100210.44;;;25.81;33.82
46199;BME280;31928;52.104;10.030;2023-07-20T18:14:06;100217.69;;;25.77;33.80
46199;BME280;31928;52.104;10.030;2023-07-20T18:16:32;100221.41;;;25.73;34.15
46199;BME280;31928;52.104;10.030;2023-07-20T18:18:59;100214.88;;;25.69;34.02
46199;BME280;31928;52.104;10.030;2023-07-20T18:21:26;100222.94;;;25.65;34.31
46199;BME280;31928;52.104;10.030;2023-07-20T18:23:53;100216.44;;;25.61;34.45
46199;BME280;31928;52.104;10.030;2023-07-20T18:26:19;100220.94;;;25.57;33.88
46199;BME280;31928;52.104;10.030;2023-07-20T18:28:46;100222.69;;;25.53;34.24
46199;BME280;31928;52.104;10.030;2023-07-20T18:31:13;100224.13;;;25.51;34.52
46199;BME280;31928;52.104;10.030;2023-07-20T18:33:40;100228.31;;;25.48;34.60
46199;BME280;31928;52.104;10.030;2023-07-20T18:36:07;100224.91;;;25.43;33.99
46199;BME280;31928;52.104;10.030;2023-07-20T18:38:34;100230.19;;;25.40;34.08
46199;BME280;31928;52.104;10.030;2023-07-20T18:41:01;100233.56;;;25.37;34.47
46199;BME280;31928;52.104;10.030;2023-07-20T18:43:28;100231.75;;;25.32;34.63
46199;BME280;31928;52.104;10.030;2023-07-20T18:45:55;100229.97;;;25.28;34.83
46199;BME280;31928;52.104;10.030;2023-07-20T18:48:22;100237.47;;;25.22;35.29
46199;BME280;31928;52.104;10.030;2023-07-20T18:50:49;100238.75;;;25.16;34.92
46199;BME280;31928;52.104;10.030;2023-07-20T18:53:15;100237.75;;;25.12;35.26
46199;BME280;31928;52.104;10.030;2023-07-20T18:55:42;100245.28;;;25.07;35.33
46199;BME280;31928;52.104;10.030;2023-07-20T18:58:08;100244.25;;;25.03;34.91
46199;BME280;31928;52.104;10.030;2023-07-20T19:00:35;100250.16;;;24.96;34.87
46199;BME280;31928;52.104;10.030;2023-07-20T19:03:02;100246.72;;;24.91;35.84
46199;BME280;31928;52.104;10.030;2023-07-20T19:05:29;100246.34;;;24.84;36.44
46199;BME280;31928;52.104;10.030;2023-07-20T19:07:55;100247.56;;;24.78;36.72
46199;BME280;31928;52.104;10.030;2023-07-20T19:10:23;100256.53;;;24.70;36.88
46199;BME280;31928;52.104;10.030;2023-07-20T19:12:50;100245.16;;;24.63;36.64
46199;BME280;31928;52.104;10.030;2023-07-20T19:15:17;100251.06;;;24.57;37.13
46199;BME280;31928;52.104;10.030;2023-07-20T19:17:44;100251.47;;;24.50;37.20
46199;BME280;31928;52.104;10.030;2023-07-20T19:20:11;100249.44;;;24.42;37.40
46199;BME280;31928;52.104;10.030;2023-07-20T19:22:42;100252.25;;;24.37;37.51
46199;BME280;31928;52.104;10.030;2023-07-20T19:25:10;100254.09;;;24.28;38.15
46199;BME280;31928;52.104;10.030;2023-07-20T19:27:44;100250.84;;;24.26;37.92
46199;BME280;31928;52.104;10.030;2023-07-20T19:30:11;100249.25;;;24.12;38.50
46199;BME280;31928;52.104;10.030;2023-07-20T19:32:38;100249.22;;;23.99;38.43
46199;BME280;31928;52.104;10.030;2023-07-20T19:35:05;100257.69;;;23.84;38.52
46199;BME280;31928;52.104;10.030;2023-07-20T19:37:33;100255.75;;;23.71;39.09
46199;BME280;31928;52.104;10.030;2023-07-20T19:39:59;100266.66;;;23.58;39.06
46199;BME280;31928;52.104;10.030;2023-07-20T19:42:27;100257.78;;;23.47;39.30
46199;BME280;31928;52.104;10.030;2023-07-20T19:44:53;100267.28;;;23.36;39.19
46199;BME280;31928;52.104;10.030;2023-07-20T19:47:20;100261.97;;;23.26;39.75
46199;BME280;31928;52.104;10.030;2023-07-20T19:49:47;100259.91;;;23.18;40.46
46199;BME280;31928;52.104;10.030;2023-07-20T19:52:14;100266.56;;;23.12;40.06
46199;BME280;31928;52.104;10.030;2023-07-20T19:54:41;100275.97;;;23.06;40.36
46199;BME280;31928;52.104;10.030;2023-07-20T19:57:08;100278.25;;;22.99;40.39
46199;BME280;31928;52.104;10.030;2023-07-20T19:59:38;100275.88;;;22.93;40.09
46199;BME280;31928;52.104;10.030;2023-07-20T20:02:04;100284.44;;;22.87;40.50
46199;BME280;31928;52.104;10.030;2023-07-20T20:04:31;100290.28;;;22.80;40.79
46199;BME280;31928;52.104;10.030;2023-07-20T20:07:00;100292.81;;;22.72;40.57
46199;BME280;31928;52.104;10.030;2023-07-20T20:09:33;100293.78;;;22.62;40.74
46199;BME280;31928;52.104;10.030;2023-07-20T20:12:00;100292.50;;;22.55;41.43
46199;BME280;31928;52.104;10.030;2023-07-20T20:14:27;100284.13;;;22.46;41.18
46199;BME280;31928;52.104;10.030;2023-07-20T20:16:54;100282.88;;;22.39;41.67
46199;BME280;31928;52.104;10.030;2023-07-20T20:19:20;100282.94;;;22.34;41.02
46199;BME280;31928;52.104;10.030;2023-07-20T20:21:47;100282.47;;;22.27;40.78
46199;BME280;31928;52.104;10.030;2023-07-20T20:24:14;100283.31;;;22.23;42.00
46199;BME280;31928;52.104;10.030;2023-07-20T20:26:40;100283.66;;;22.16;42.01
46199;BME280;31928;52.104;10.030;2023-07-20T20:29:07;100290.28;;;22.10;41.84
46199;BME280;31928;52.104;10.030;2023-07-20T20:31:34;100277.25;;;22.02;42.04
46199;BME280;31928;52.104;10.030;2023-07-20T20:34:01;100284.16;;;21.95;42.31
46199;BME280;31928;52.104;10.030;2023-07-20T20:36:27;100269.50;;;21.86;42.11
46199;BME280;31928;52.104;10.030;2023-07-20T20:38:54;100272.63;;;21.74;41.97
46199;BME280;31928;52.104;10.030;2023-07-20T20:41:21;100280.09;;;21.64;42.29
46199;BME280;31928;52.104;10.030;2023-07-20T20:43:48;100281.00;;;21.55;42.44
46199;BME280;31928;52.104;10.030;2023-07-20T20:46:15;100275.59;;;21.45;42.31
46199;BME280;31928;52.104;10.030;2023-07-20T20:48:47;100280.31;;;21.34;42.53
46199;BME280;31928;52.104;10.030;2023-07-20T20:51:14;100280.38;;;21.24;43.17
46199;BME280;31928;52.104;10.030;2023-07-20T20:53:40;100269.28;;;21.16;42.88
46199;BME280;31928;52.104;10.030;2023-07-20T20:56:07;100269.06;;;21.08;42.94
46199;BME280;31928;52.104;10.030;2023-07-20T20:58:34;100265.84;;;21.01;43.76
46199;BME280;31928;52.104;10.030;2023-07-20T21:01:01;100258.00;;;20.94;48.28
46199;BME280;31928;52.104;10.030;2023-07-20T21:03:28;100260.75;;;20.89;48.81
46199;BME280;31928;52.104;10.030;2023-07-20T21:05:56;100263.19;;;20.91;48.80
46199;BME280;31928;52.104;10.030;2023-07-20T21:08:24;100260.44;;;20.96;48.44
46199;BME280;31928;52.104;10.030;2023-07-20T21:10:51;100272.66;;;21.03;51.12
46199;BME280;31928;52.104;10.030;2023-07-20T21:13:19;100266.59;;;21.11;49.71
46199;BME280;31928;52.104;10.030;2023-07-20T21:15:46;100270.84;;;21.22;48.25
46199;BME280;31928;52.104;10.030;2023-07-20T21:18:13;100269.16;;;21.31;47.48
46199;BME280;31928;52.104;10.030;2023-07-20T21:20:42;100280.00;;;21.41;46.69
46199;BME280;31928;52.104;10.030;2023-07-20T21:23:09;100279.38;;;21.49;46.57
46199;BME280;31928;52.104;10.030;2023-07-20T21:25:36;100270.59;;;21.57;45.86
46199;BME280;31928;52.104;10.030;2023-07-20T21:28:03;100279.28;;;21.64;45.74
46199;BME280;31928;52.104;10.030;2023-07-20T21:30:30;100269.94;;;21.70;45.29
46199;BME280;31928;52.104;10.030;2023-07-20T21:32:57;100280.81;;;21.74;45.25
46199;BME280;31928;52.104;10.030;2023-07-20T21:35:24;100269.53;;;21.81;44.95
46199;BME280;31928;52.104;10.030;2023-07-20T21:37:50;100267.59;;;21.86;44.28
46199;BME280;31928;52.104;10.030;2023-07-20T21:40:17;100274.13;;;21.90;44.30
46199;BME280;31928;52.104;10.030;2023-07-20T21:42:51;100279.44;;;22.00;43.86
46199;BME280;31928;52.104;10.030;2023-07-20T21:45:17;100283.84;;;21.96;44.20
46199;BME280;31928;52.104;10.030;2023-07-20T21:47:44;100276.22;;;21.98;43.70
46199;BME280;31928;52.104;10.030;2023-07-20T21:50:11;100286.53;;;22.01;43.91
46199;BME280;31928;52.104;10.030;2023-07-20T21:55:09;100278.31;;;22.06;43.38
46199;BME280;31928;52.104;10.030;2023-07-20T21:57:36;100282.66;;;22.07;43.60
46199;BME280;31928;52.104;10.030;2023-07-20T22:00:03;100281.56;;;22.08;43.41
46199;BME280;31928;52.104;10.030;2023-07-20T22:02:31;100276.63;;;22.10;43.31
46199;BME280;31928;52.104;10.030;2023-07-20T22:04:58;100269.53;;;22.09;43.15
46199;BME280;31928;52.104;10.030;2023-07-20T22:07:25;100286.44;;;22.11;42.98
46199;BME280;31928;52.104;10.030;2023-07-20T22:09:51;100279.34;;;22.10;43.10
46199;BME280;31928;52.104;10.030;2023-07-20T22:12:18;100280.97;;;22.11;42.74
46199;BME280;31928;52.104;10.030;2023-07-20T22:14:44;100277.72;;;22.09;42.67
46199;BME280;31928;52.104;10.030;2023-07-20T22:17:11;100274.97;;;22.09;42.81
46199;BME280;31928;52.104;10.030;2023-07-20T22:19:41;100265.44;;;22.07;42.86
46199;BME280;31928;52.104;10.030;2023-07-20T22:22:08;100264.34;;;22.08;43.07
46199;BME280;31928;52.104;10.030;2023-07-20T22:24:36;100264.66;;;22.06;42.78
46199;BME280;31928;52.104;10.030;2023-07-20T22:27:03;100261.91;;;22.06;42.69
46199;BME280;31928;52.104;10.030;2023-07-20T22:29:30;100260.28;;;22.05;42.83
46199;BME280;31928;52.104;10.030;2023-07-20T22:31:59;100264.09;;;22.04;42.74
46199;BME280;31928;52.104;10.030;2023-07-20T22:34:29;100262.47;;;22.08;42.62
46199;BME280;31928;52.104;10.030;2023-07-20T22:37:00;100257.59;;;22.00;42.82
46199;BME280;31928;52.104;10.030;2023-07-20T22:39:27;100263.06;;;22.00;42.65
46199;BME280;31928;52.104;10.030;2023-07-20T22:42:00;100252.97;;;22.01;42.46
46199;BME280;31928;52.104;10.030;2023-07-20T22:44:28;100245.63;;;21.96;42.58
46199;BME280;31928;52.104;10.030;2023-07-20T22:46:56;100250.59;;;21.94;42.79
46199;BME280;31928;52.104;10.030;2023-07-20T22:49:23;100235.31;;;21.93;42.51
46199;BME280;31928;52.104;10.030;2023-07-20T22:51:50;100239.44;;;21.91;42.33
46199;BME280;31928;52.104;10.030;2023-07-20T22:54:16;100238.88;;;21.89;42.79